This is the latest recevied weather packets stored in our database for station/object F4WDE-10. If no packets are shown the sender has not sent any weather packets the latest 10 day(s).
| Time | Temp. | Humidity | Pressure | Rain* | Wind** | Luminosity | Snow |
|---|---|---|---|---|---|---|---|
| 1777969565 | 17.22° C | 90% | 958 hPa | - | - | - | - |
| 1777968664 | 17.22° C | 91% | 958 hPa | - | - | - | - |
| 1777967763 | 17.22° C | 93% | 958 hPa | - | - | - | - |
| 1777966862 | 16.67° C | 94% | 958 hPa | - | - | - | - |
| 1777965961 | 16.11° C | 90% | 958 hPa | - | - | - | - |
| 1777965060 | 16.67° C | 90% | 958 hPa | - | - | - | - |
| 1777964159 | 17.22° C | 85% | 957 hPa | - | - | - | - |
| 1777963258 | 16.11° C | 93% | 957 hPa | - | - | - | - |
| 1777962356 | 16.11° C | 90% | 957 hPa | - | - | - | - |
| 1777961455 | 16.11° C | 92% | 957 hPa | - | - | - | - |
| 1777960554 | 16.11° C | 89% | 957 hPa | - | - | - | - |
| 1777959653 | 17.22° C | 88% | 957 hPa | - | - | - | - |
| 1777958752 | 16.67° C | 90% | 956 hPa | - | - | - | - |
| 1777957851 | 15.56° C | 95% | 956 hPa | - | - | - | - |
| 1777956950 | 15.56° C | 93% | 957 hPa | - | - | - | - |
| 1777956049 | 16.11° C | 88% | 957 hPa | - | - | - | - |
| 1777955147 | 16.11° C | 87% | 956 hPa | - | - | - | - |
| 1777954246 | 16.11° C | 88% | 956 hPa | - | - | - | - |
| 1777953345 | 16.11° C | 89% | 956 hPa | - | - | - | - |
| 1777952444 | 15.56° C | 89% | 956 hPa | - | - | - | - |
| 1777951543 | 15.56° C | 91% | 957 hPa | - | - | - | - |
| 1777950642 | 16.11° C | 92% | 957 hPa | - | - | - | - |
| 1777949741 | 15° C | 98% | 957 hPa | - | - | - | - |
| 1777948840 | 15° C | 94% | 957 hPa | - | - | - | - |
| 1777947939 | 15° C | 94% | 957 hPa | - | - | - | - |
* Rain since midnight (hover to see other rain measurements)
** Current wind speed in m/s (hover to see current wind gust speed)